Time;durP1;ratioP1;P1;durP2;ratioP2;P2;SDS_P1;SDS_P2;PMS_P1;PMS_P2;Temp;Humidity;BMP_temperature;BMP_pressure;BME280_temperature;BME280_humidity;BME280_pressure;Samples;Min_cycle;Max_cycle;Signal;HPM_P1;HPM_P2
2021/09/16 00:02:23;;;;;;;9.25;6.35;;;22.80;96.70;;;;;;4968096;28;20101;-74
2021/09/16 00:04:52;;;;;;;9.15;5.70;;;22.80;96.70;;;;;;4966283;28;20202;-74
2021/09/16 00:07:22;;;;;;;11.63;6.78;;;22.90;96.70;;;;;;4964792;28;20343;-74
2021/09/16 00:09:52;;;;;;;7.85;6.78;;;23.00;96.70;;;;;;4964577;28;20065;-74
2021/09/16 00:12:21;;;;;;;9.10;7.20;;;22.80;96.70;;;;;;4963225;28;20313;-74
2021/09/16 00:14:52;;;;;;;10.80;8.80;;;22.60;96.70;;;;;;4964449;28;20117;-74
2021/09/16 00:17:21;;;;;;;14.13;8.07;;;22.80;96.70;;;;;;4960290;28;20081;-74
2021/09/16 00:19:59;;;;;;;10.02;8.57;;;22.80;96.70;;;;;;4965454;28;20051;-77
2021/09/16 00:22:33;;;;;;;10.52;8.60;;;22.60;96.70;;;;;;4948769;28;20542;-79
2021/09/16 00:25:01;;;;;;;12.10;8.20;;;22.70;96.70;;;;;;4959217;28;20055;-78
2021/09/16 00:27:33;;;;;;;9.65;8.52;;;22.60;96.70;;;;;;4964969;28;20197;-78
2021/09/16 00:30:07;;;;;;;12.52;9.50;;;22.70;96.70;;;;;;4962583;28;20508;-78
2021/09/16 00:32:37;;;;;;;9.88;8.88;;;22.50;96.70;;;;;;4967979;28;20105;-78
2021/09/16 00:35:07;;;;;;;15.73;9.52;;;22.50;96.70;;;;;;4965003;28;20050;-77
2021/09/16 00:37:36;;;;;;;10.23;9.13;;;22.60;96.70;;;;;;4963712;28;20061;-78
2021/09/16 00:40:08;;;;;;;10.52;8.70;;;22.50;96.70;;;;;;4963651;28;20117;-78
2021/09/16 00:42:38;;;;;;;9.75;8.75;;;22.50;96.70;;;;;;4959215;28;20074;-79
2021/09/16 00:45:11;;;;;;;12.88;9.18;;;22.50;96.70;;;;;;4959460;28;20054;-79
2021/09/16 00:47:45;;;;;;;10.10;8.82;;;22.60;96.70;;;;;;4965648;28;20039;-78
2021/09/16 00:50:15;;;;;;;11.23;8.77;;;22.60;96.70;;;;;;4961615;28;20109;-78
2021/09/16 00:52:46;;;;;;;11.20;8.68;;;22.60;96.70;;;;;;4981270;28;20059;-78
2021/09/16 00:55:17;;;;;;;11.10;8.30;;;22.70;96.70;;;;;;4964027;28;20046;-74
2021/09/16 00:57:50;;;;;;;11.75;9.20;;;22.60;96.70;;;;;;4964320;28;20579;-75
2021/09/16 01:00:42;;;;;;;11.40;8.70;;;22.60;96.70;;;;;;4993542;28;20134;-74
2021/09/16 01:03:10;;;;;;;9.80;8.25;;;22.60;96.70;;;;;;4973629;28;20494;-75
2021/09/16 01:05:57;;;;;;;10.02;8.77;;;22.50;96.70;;;;;;4947837;28;20405;-74
2021/09/16 01:08:26;;;;;;;9.65;8.07;;;22.50;96.70;;;;;;4964310;28;20066;-75
2021/09/16 01:11:13;;;;;;;8.13;7.32;;;22.60;96.70;;;;;;4964495;28;20082;-75
2021/09/16 01:13:43;;;;;;;9.48;7.78;;;22.70;96.70;;;;;;4959522;28;20471;-75
2021/09/16 01:16:12;;;;;;;9.48;7.65;;;22.70;96.70;;;;;;4965955;28;20641;-74
2021/09/16 01:18:40;;;;;;;7.68;7.00;;;22.70;96.70;;;;;;4962772;28;20047;-75
2021/09/16 01:21:51;;;;;;;7.25;6.55;;;22.70;96.70;;;;;;4966204;28;20042;-74
2021/09/16 01:24:22;;;;;;;7.63;6.82;;;22.70;96.70;;;;;;4961299;28;20108;-75
2021/09/16 01:27:06;;;;;;;8.57;6.70;;;22.70;96.70;;;;;;4962799;28;20133;-74
2021/09/16 01:29:34;;;;;;;7.60;6.35;;;22.70;96.70;;;;;;4963849;28;20192;-75
2021/09/16 01:32:23;;;;;;;6.53;5.78;;;22.70;96.70;;;;;;4964001;28;20035;-75
2021/09/16 01:34:52;;;;;;;6.40;5.68;;;22.80;96.70;;;;;;4996681;28;20057;-75
2021/09/16 01:37:21;;;;;;;7.80;5.93;;;22.70;96.70;;;;;;4964042;28;20035;-75
2021/09/16 01:39:52;;;;;;;7.47;5.50;;;22.50;96.70;;;;;;4966156;28;20062;-74
2021/09/16 01:42:22;;;;;;;9.02;5.70;;;22.60;96.70;;;;;;4971264;28;20283;-74
2021/09/16 01:44:51;;;;;;;8.82;6.13;;;22.60;96.70;;;;;;4963158;28;20432;-75
2021/09/16 01:47:20;;;;;;;6.00;5.40;;;22.60;96.70;;;;;;4960169;28;20036;-74
2021/09/16 01:49:50;;;;;;;6.47;5.60;;;22.50;96.70;;;;;;4961157;28;20066;-74
2021/09/16 01:52:18;;;;;;;7.00;5.80;;;22.60;96.70;;;;;;4959126;28;20066;-75
2021/09/16 01:54:47;;;;;;;6.90;6.15;;;22.50;96.70;;;;;;4964097;28;20564;-74
2021/09/16 01:57:17;;;;;;;7.05;6.30;;;22.50;96.70;;;;;;4961215;28;20054;-74
2021/09/16 01:59:47;;;;;;;10.13;5.97;;;22.40;96.70;;;;;;4965788;28;20050;-74
2021/09/16 02:02:16;;;;;;;7.38;5.88;;;22.40;96.70;;;;;;4961848;28;20525;-74
2021/09/16 02:04:46;;;;;;;7.18;5.95;;;22.40;96.70;;;;;;4960700;28;20054;-74
2021/09/16 02:07:15;;;;;;;8.05;6.38;;;22.40;96.70;;;;;;4960456;28;20098;-75
2021/09/16 02:09:45;;;;;;;8.07;6.22;;;22.30;96.70;;;;;;4960576;28;20043;-74
2021/09/16 02:12:16;;;;;;;7.97;6.65;;;22.40;96.70;;;;;;4963210;28;20160;-75
2021/09/16 02:14:45;;;;;;;6.38;5.75;;;22.40;96.70;;;;;;4963649;28;20125;-75
2021/09/16 02:17:13;;;;;;;6.38;5.78;;;22.30;96.70;;;;;;4959177;28;20131;-75
2021/09/16 02:19:57;;;;;;;7.25;5.95;;;22.20;96.70;;;;;;4967745;28;20048;-74
2021/09/16 02:22:26;;;;;;;8.73;5.70;;;22.30;96.70;;;;;;4964601;28;20049;-74
2021/09/16 02:25:16;;;;;;;6.82;5.53;;;22.30;96.70;;;;;;4960175;28;20129;-79
2021/09/16 02:27:46;;;;;;;6.57;5.88;;;22.30;96.70;;;;;;4962861;28;20055;-79
2021/09/16 02:30:16;;;;;;;6.20;5.60;;;22.30;96.70;;;;;;4966872;28;20051;-78
2021/09/16 02:32:46;;;;;;;6.82;6.05;;;22.30;96.70;;;;;;4963027;28;20804;-78
2021/09/16 02:35:16;;;;;;;8.10;6.20;;;22.30;96.70;;;;;;4960111;28;20043;-78
2021/09/16 02:37:46;;;;;;;5.65;5.15;;;22.30;96.70;;;;;;4960108;28;20047;-78
2021/09/16 02:40:16;;;;;;;6.47;5.85;;;22.30;96.70;;;;;;4964168;28;20038;-78
2021/09/16 02:42:48;;;;;;;7.10;5.72;;;22.40;96.70;;;;;;4963867;28;20094;-78
2021/09/16 02:45:18;;;;;;;6.97;5.90;;;22.40;96.70;;;;;;4963337;28;20558;-78
2021/09/16 02:47:47;;;;;;;8.20;5.88;;;22.40;96.70;;;;;;4963928;28;21000;-78
2021/09/16 02:50:16;;;;;;;6.40;5.82;;;22.40;96.70;;;;;;4956711;28;20097;-78
2021/09/16 02:52:46;;;;;;;6.82;5.35;;;22.40;96.70;;;;;;4964008;28;20109;-78
2021/09/16 02:55:19;;;;;;;8.35;5.10;;;22.40;96.70;;;;;;4963402;28;20456;-78
2021/09/16 02:57:50;;;;;;;7.07;5.68;;;22.30;96.70;;;;;;4961470;28;20049;-77
2021/09/16 03:00:20;;;;;;;6.85;6.00;;;22.30;96.70;;;;;;4957474;28;20039;-78
2021/09/16 03:02:50;;;;;;;6.88;5.72;;;22.30;96.70;;;;;;4974772;28;20062;-78
2021/09/16 03:05:19;;;;;;;8.93;6.25;;;22.30;96.70;;;;;;4957715;28;20039;-78
2021/09/16 03:07:51;;;;;;;7.47;5.75;;;22.30;96.70;;;;;;4962002;28;20121;-78
2021/09/16 03:10:20;;;;;;;6.03;5.47;;;22.30;96.70;;;;;;4961943;28;20043;-78
2021/09/16 03:12:51;;;;;;;6.38;5.78;;;22.30;96.70;;;;;;4961829;28;20057;-78
2021/09/16 03:15:20;;;;;;;6.95;6.10;;;22.30;96.70;;;;;;4963649;28;20046;-78
2021/09/16 03:17:48;;;;;;;7.97;6.00;;;22.30;96.70;;;;;;4946039;28;20137;-78
2021/09/16 03:20:17;;;;;;;7.65;5.15;;;22.20;96.70;;;;;;4966576;28;20057;-78
2021/09/16 03:22:45;;;;;;;6.75;5.82;;;22.10;96.70;;;;;;4964593;28;20039;-77
2021/09/16 03:25:13;;;;;;;6.10;5.55;;;22.20;96.70;;;;;;4965602;28;20061;-78
2021/09/16 03:27:42;;;;;;;6.30;5.40;;;22.20;96.70;;;;;;4962021;28;20102;-79
2021/09/16 03:30:14;;;;;;;6.68;5.43;;;22.10;96.70;;;;;;4948082;28;20065;-78
2021/09/16 03:32:43;;;;;;;6.78;5.70;;;22.20;96.70;;;;;;4963073;28;20047;-78
2021/09/16 03:35:11;;;;;;;6.47;5.80;;;22.10;96.70;;;;;;4961725;28;20046;-79
2021/09/16 03:37:40;;;;;;;6.30;5.70;;;22.10;96.70;;;;;;4966022;28;20102;-78
2021/09/16 03:40:09;;;;;;;6.80;6.10;;;22.10;96.70;;;;;;4964228;28;20045;-79
2021/09/16 03:42:38;;;;;;;7.22;5.93;;;22.10;96.70;;;;;;4964483;28;20056;-78
2021/09/16 03:45:07;;;;;;;6.93;5.68;;;21.90;96.70;;;;;;4973604;28;20046;-78
2021/09/16 03:47:37;;;;;;;6.60;5.75;;;21.90;96.70;;;;;;4970395;28;20413;-79
2021/09/16 03:50:06;;;;;;;7.05;5.75;;;21.90;96.70;;;;;;4967097;28;20043;-78
2021/09/16 03:52:34;;;;;;;6.53;5.70;;;22.00;96.70;;;;;;4961057;28;20047;-78
2021/09/16 03:55:04;;;;;;;6.22;5.70;;;22.10;96.70;;;;;;4966168;28;20055;-78
2021/09/16 03:57:32;;;;;;;7.80;6.22;;;22.10;96.70;;;;;;4952241;28;20045;-78
2021/09/16 04:00:01;;;;;;;7.30;5.60;;;22.00;96.70;;;;;;4966849;28;20101;-78
2021/09/16 04:02:31;;;;;;;6.95;5.55;;;22.00;96.70;;;;;;4964798;28;20062;-78
2021/09/16 04:05:00;;;;;;;7.75;5.97;;;22.00;96.70;;;;;;4966969;28;20129;-79
2021/09/16 04:07:29;;;;;;;8.30;5.88;;;22.10;96.70;;;;;;4967048;28;20050;-78
2021/09/16 04:09:58;;;;;;;6.07;5.47;;;22.00;96.70;;;;;;4950692;28;20173;-79
2021/09/16 04:12:26;;;;;;;6.00;5.43;;;21.90;96.70;;;;;;4968761;28;20464;-78
2021/09/16 04:14:54;;;;;;;6.43;5.75;;;21.80;96.70;;;;;;4982440;28;20053;-78
2021/09/16 04:17:23;;;;;;;6.55;5.57;;;21.90;96.70;;;;;;4964443;28;20395;-78
2021/09/16 04:19:51;;;;;;;5.88;5.35;;;21.90;96.70;;;;;;4949483;28;20437;-78
2021/09/16 04:22:21;;;;;;;8.93;5.90;;;21.90;96.70;;;;;;4961886;28;20514;-78
2021/09/16 04:24:50;;;;;;;6.82;5.63;;;21.90;96.70;;;;;;4976286;28;20481;-77
2021/09/16 04:27:18;;;;;;;5.60;5.10;;;21.90;96.70;;;;;;4966623;28;20446;-78
2021/09/16 04:29:46;;;;;;;8.60;5.80;;;21.90;96.70;;;;;;4965549;28;20045;-78
2021/09/16 04:32:14;;;;;;;7.10;5.60;;;21.90;96.70;;;;;;4965213;28;20035;-79
2021/09/16 04:34:43;;;;;;;6.80;6.13;;;21.90;96.70;;;;;;4970480;28;20147;-79
2021/09/16 04:37:11;;;;;;;6.03;5.40;;;21.70;96.70;;;;;;4966609;28;20514;-77
2021/09/16 04:39:41;;;;;;;8.07;5.55;;;21.70;96.70;;;;;;4964680;28;20035;-79
2021/09/16 04:42:09;;;;;;;5.97;5.45;;;21.70;96.70;;;;;;4963505;28;20046;-79
2021/09/16 04:44:38;;;;;;;7.30;5.55;;;21.70;96.70;;;;;;4945938;28;20137;-79
2021/09/16 04:47:07;;;;;;;6.05;5.22;;;21.70;96.70;;;;;;4966608;28;20057;-79
2021/09/16 04:49:36;;;;;;;6.85;5.85;;;21.70;96.70;;;;;;4959718;28;20047;-79
2021/09/16 04:52:05;;;;;;;6.53;5.93;;;21.70;96.70;;;;;;4947963;28;20197;-79
2021/09/16 04:54:33;;;;;;;9.27;6.20;;;21.70;96.70;;;;;;4963897;28;20061;-79
2021/09/16 04:57:04;;;;;;;6.45;5.90;;;21.70;96.70;;;;;;4965537;28;20146;-79
2021/09/16 04:59:32;;;;;;;6.75;6.15;;;21.70;96.70;;;;;;4961448;28;20049;-79
2021/09/16 05:02:01;;;;;;;7.68;6.38;;;21.70;96.70;;;;;;4966236;28;20409;-79
2021/09/16 05:04:29;;;;;;;6.90;5.80;;;21.80;96.70;;;;;;4964451;28;20132;-79
2021/09/16 05:06:57;;;;;;;8.93;6.53;;;21.70;96.70;;;;;;4949613;28;20371;-79
2021/09/16 05:09:26;;;;;;;9.00;6.50;;;21.60;96.70;;;;;;4994844;28;20133;-79
2021/09/16 05:11:54;;;;;;;10.10;7.07;;;21.60;96.70;;;;;;4965393;28;20051;-79
2021/09/16 05:14:24;;;;;;;7.53;6.15;;;21.60;96.70;;;;;;4963695;28;20039;-79
2021/09/16 05:16:52;;;;;;;8.27;6.22;;;21.60;96.70;;;;;;4965758;28;20046;-78
2021/09/16 05:19:21;;;;;;;10.40;6.15;;;21.60;96.70;;;;;;4965385;28;20044;-79
2021/09/16 05:21:49;;;;;;;9.40;6.68;;;21.70;96.70;;;;;;4965252;28;20161;-78
2021/09/16 05:24:18;;;;;;;7.43;5.75;;;21.60;96.70;;;;;;4960058;28;20038;-78
2021/09/16 05:26:47;;;;;;;7.40;5.93;;;21.70;96.70;;;;;;4964963;28;20043;-79
2021/09/16 05:29:15;;;;;;;5.72;5.10;;;21.60;96.70;;;;;;4959128;28;20070;-79
2021/09/16 05:32:11;;;;;;;7.60;5.35;;;21.70;96.70;;;;;;4968183;28;20045;-79
2021/09/16 05:35:43;;;;;;;7.10;5.45;;;21.60;96.70;;;;;;5144089;23;20025;-79
2021/09/16 05:38:49;;;;;;;5.82;5.22;;;21.70;96.70;;;;;;4942503;28;20130;-79
2021/09/16 05:42:10;;;;;;;7.50;5.40;;;21.80;96.70;;;;;;4973430;23;20066;-79
2021/09/16 05:52:20;;;;;;;7.15;6.32;;;21.90;96.70;;;;;;6006298;23;20800;-80
2021/09/16 05:55:11;;;;;;;8.95;6.95;;;22.00;96.70;;;;;;4871646;29;20152;-79
2021/09/16 06:07:09;;;;;;;10.20;7.55;;;22.00;96.70;;;;;;4961676;23;20057;-79
2021/09/16 06:11:01;;;;;;;10.32;7.18;;;22.00;96.70;;;;;;4918297;29;20046;-80
2021/09/16 06:17:03;;;;;;;11.30;7.10;;;22.10;96.70;;;;;;4922055;29;20055;-80
2021/09/16 06:19:33;;;;;;;8.10;6.30;;;22.10;96.70;;;;;;4921346;29;20052;-80
2021/09/16 06:22:08;;;;;;;13.55;9.40;;;22.10;96.70;;;;;;4917246;29;20043;-79
2021/09/16 06:24:38;;;;;;;14.10;10.40;;;22.30;96.70;;;;;;4907557;29;20045;-80
2021/09/16 06:27:11;;;;;;;13.30;9.90;;;22.20;96.70;;;;;;4904962;29;20123;-80
2021/09/16 06:29:40;;;;;;;10.07;8.88;;;22.20;96.70;;;;;;4907965;29;20653;-80
2021/09/16 06:32:09;;;;;;;11.50;8.65;;;22.20;96.70;;;;;;4918404;29;20071;-79
2021/09/16 06:34:38;;;;;;;11.50;7.93;;;22.20;96.70;;;;;;4906653;29;20114;-80
2021/09/16 06:37:08;;;;;;;12.40;7.65;;;22.30;96.70;;;;;;4901447;29;20080;-80
2021/09/16 06:39:37;;;;;;;7.45;6.63;;;22.40;96.70;;;;;;4893002;29;20140;-79
2021/09/16 06:42:05;;;;;;;8.20;6.50;;;22.40;96.70;;;;;;4901806;29;20080;-80
2021/09/16 06:44:33;;;;;;;7.57;6.18;;;22.40;96.70;;;;;;4909648;29;20067;-81
2021/09/16 06:47:01;;;;;;;11.23;6.13;;;22.40;96.70;;;;;;4908073;29;20048;-79
2021/09/16 06:49:33;;;;;;;9.18;5.90;;;22.40;96.70;;;;;;4907569;29;20064;-80
2021/09/16 06:52:01;;;;;;;15.43;5.93;;;22.40;96.70;;;;;;4908452;29;20048;-82
2021/09/16 06:54:31;;;;;;;8.95;5.90;;;22.40;96.70;;;;;;4911313;29;20040;-81
2021/09/16 06:56:59;;;;;;;11.60;5.50;;;22.40;96.70;;;;;;4912170;29;20502;-81
2021/09/16 06:59:27;;;;;;;6.53;5.40;;;22.50;96.70;;;;;;4913343;29;20047;-80
2021/09/16 07:01:55;;;;;;;7.80;4.88;;;22.50;96.70;;;;;;4909988;29;20072;-80
2021/09/16 07:04:23;;;;;;;7.78;5.47;;;22.60;96.70;;;;;;4908456;29;20051;-80
2021/09/16 07:06:52;;;;;;;6.10;5.07;;;22.60;96.70;;;;;;4912579;29;20099;-80
2021/09/16 07:09:20;;;;;;;8.15;5.50;;;22.70;96.70;;;;;;4913222;29;20071;-79
2021/09/16 07:11:49;;;;;;;5.82;5.22;;;22.70;96.70;;;;;;4913546;29;20059;-79
2021/09/16 07:14:17;;;;;;;5.55;4.90;;;22.80;96.70;;;;;;4918242;29;20059;-79
2021/09/16 07:16:45;;;;;;;5.57;4.75;;;22.90;96.70;;;;;;4914012;29;20099;-79
2021/09/16 07:19:14;;;;;;;9.52;5.20;;;23.00;96.70;;;;;;4909882;29;20048;-79
2021/09/16 07:21:42;;;;;;;10.20;5.65;;;23.00;96.70;;;;;;4912985;29;20056;-83
2021/09/16 07:24:15;;;;;;;7.40;4.63;;;23.00;96.70;;;;;;4912369;29;20052;-80
2021/09/16 07:26:49;;;;;;;4.85;4.22;;;23.00;96.70;;;;;;4930634;29;20402;-79
2021/09/16 07:29:20;;;;;;;6.80;4.38;;;22.90;96.70;;;;;;4920354;29;20054;-80
2021/09/16 07:31:49;;;;;;;6.18;4.75;;;22.90;96.70;;;;;;4919886;29;20042;-80
2021/09/16 07:34:19;;;;;;;5.93;5.28;;;23.00;96.70;;;;;;4922495;29;20565;-79
2021/09/16 07:36:48;;;;;;;8.82;6.15;;;23.00;96.70;;;;;;4929390;29;20142;-78
2021/09/16 07:39:18;;;;;;;14.00;9.60;;;23.00;96.70;;;;;;4900485;29;20067;-79
2021/09/16 07:41:49;;;;;;;15.23;10.07;;;23.00;96.70;;;;;;4915434;29;20063;-78
2021/09/16 07:44:19;;;;;;;17.77;10.85;;;23.00;96.70;;;;;;4907287;29;20048;-78
2021/09/16 07:46:47;;;;;;;20.10;10.77;;;23.00;96.70;;;;;;4912433;29;20913;-78
2021/09/16 07:49:27;;;;;;;13.40;9.60;;;23.00;96.70;;;;;;4914551;29;20049;-80
2021/09/16 07:51:55;;;;;;;19.25;8.93;;;23.10;96.70;;;;;;4926072;29;20079;-82
2021/09/16 07:54:24;;;;;;;11.93;7.60;;;23.10;96.70;;;;;;4923794;29;20055;-79
2021/09/16 07:56:52;;;;;;;10.40;7.43;;;23.10;96.70;;;;;;4926422;29;20047;-78
2021/09/16 07:59:22;;;;;;;8.77;7.32;;;23.10;96.70;;;;;;4920135;29;20044;-78
2021/09/16 08:01:50;;;;;;;10.40;7.07;;;23.10;96.70;;;;;;4917055;29;20051;-78
2021/09/16 08:04:19;;;;;;;8.55;6.63;;;23.10;96.70;;;;;;4929951;29;20054;-79
2021/09/16 08:06:47;;;;;;;6.25;5.50;;;23.00;96.70;;;;;;4915904;29;20419;-79
2021/09/16 08:09:15;;;;;;;6.72;5.30;;;23.10;96.70;;;;;;4910412;29;20068;-79
2021/09/16 08:11:43;;;;;;;10.95;5.40;;;23.10;96.70;;;;;;4920366;29;20074;-79
2021/09/16 08:14:11;;;;;;;6.03;5.07;;;23.10;96.70;;;;;;4914293;29;20058;-81
2021/09/16 08:16:41;;;;;;;7.95;4.95;;;23.20;96.70;;;;;;4920624;29;20142;-80
2021/09/16 08:19:10;;;;;;;5.65;4.60;;;23.20;96.70;;;;;;4913522;29;20040;-81
2021/09/16 08:21:38;;;;;;;5.63;4.88;;;23.10;96.70;;;;;;4916116;29;20044;-80
2021/09/16 08:24:07;;;;;;;8.15;5.45;;;23.10;96.70;;;;;;4931389;29;20051;-81
2021/09/16 08:26:35;;;;;;;8.65;4.47;;;23.10;96.70;;;;;;4918469;29;20131;-80
2021/09/16 08:29:03;;;;;;;7.68;5.13;;;23.20;96.70;;;;;;4928042;29;20130;-76
2021/09/16 08:31:32;;;;;;;6.25;4.72;;;23.10;96.70;;;;;;4908639;29;20044;-76
2021/09/16 08:34:02;;;;;;;6.95;5.22;;;23.10;96.70;;;;;;4910196;29;20048;-76
2021/09/16 08:36:30;;;;;;;6.80;5.53;;;23.20;96.70;;;;;;4897871;29;20525;-76
2021/09/16 08:38:59;;;;;;;10.27;6.05;;;23.10;96.70;;;;;;4927445;29;20057;-76
2021/09/16 08:41:27;;;;;;;7.70;5.78;;;23.20;96.70;;;;;;4920228;29;20048;-76
2021/09/16 08:43:56;;;;;;;7.03;5.35;;;23.20;96.70;;;;;;4911054;29;20048;-76
2021/09/16 08:46:24;;;;;;;8.55;5.80;;;23.30;96.70;;;;;;4918272;29;20192;-78
2021/09/16 08:48:53;;;;;;;9.70;5.70;;;23.40;96.70;;;;;;4911635;29;20044;-77
2021/09/16 08:51:25;;;;;;;7.88;5.88;;;23.50;96.70;;;;;;4915934;29;20048;-77
2021/09/16 08:53:54;;;;;;;8.40;6.43;;;23.60;96.70;;;;;;4912237;29;20600;-77
2021/09/16 08:56:24;;;;;;;12.73;7.50;;;23.60;96.70;;;;;;4920238;29;20494;-78
2021/09/16 08:58:57;;;;;;;11.60;7.93;;;23.70;96.70;;;;;;4941631;29;20144;-77
2021/09/16 09:01:26;;;;;;;11.95;8.18;;;23.90;96.70;;;;;;4919832;29;20132;-77
2021/09/16 09:03:54;;;;;;;12.15;8.75;;;23.90;96.70;;;;;;4925477;29;20051;-76
2021/09/16 09:06:32;;;;;;;13.27;8.23;;;24.20;96.70;;;;;;4920942;29;20150;-77
2021/09/16 09:09:12;;;;;;;11.38;8.80;;;24.40;96.70;;;;;;4923090;29;20079;-78
2021/09/16 09:11:52;;;;;;;15.13;8.75;;;24.60;96.70;;;;;;4909267;29;20047;-76
2021/09/16 09:14:21;;;;;;;19.73;10.02;;;24.70;96.70;;;;;;4912006;29;20044;-76
2021/09/16 09:16:50;;;;;;;18.02;9.25;;;24.90;96.70;;;;;;4909325;29;20411;-76
2021/09/16 09:19:20;;;;;;;12.05;7.45;;;25.10;96.70;;;;;;4901220;29;20140;-77
2021/09/16 09:21:50;;;;;;;8.45;7.05;;;25.20;96.70;;;;;;4894756;29;20055;-76
2021/09/16 09:24:29;;;;;;;11.07;6.93;;;25.20;96.70;;;;;;4904169;29;20082;-77
2021/09/16 09:26:59;;;;;;;7.75;6.20;;;25.30;96.70;;;;;;4898910;29;20104;-77
2021/09/16 09:29:28;;;;;;;9.30;7.15;;;25.30;96.70;;;;;;4900074;29;20040;-77
2021/09/16 09:32:14;;;;;;;9.82;7.35;;;25.30;96.70;;;;;;4903295;29;20040;-77
2021/09/16 09:34:43;;;;;;;9.30;7.47;;;25.30;96.70;;;;;;4903575;29;20059;-76
2021/09/16 09:37:14;;;;;;;12.45;7.50;;;25.30;96.70;;;;;;4916078;29;20299;-76
2021/09/16 09:39:45;;;;;;;11.18;7.13;;;25.30;96.70;;;;;;4906377;29;20125;-76
2021/09/16 09:42:22;;;;;;;9.15;7.07;;;25.20;96.70;;;;;;4897876;29;20048;-77
2021/09/16 09:44:52;;;;;;;7.07;6.38;;;25.10;96.70;;;;;;4916497;29;20048;-77
2021/09/16 09:47:35;;;;;;;6.75;6.13;;;25.00;96.70;;;;;;4899053;29;20040;-76
2021/09/16 09:50:15;;;;;;;8.80;6.38;;;25.00;96.70;;;;;;4922613;29;20091;-78
2021/09/16 09:52:44;;;;;;;10.10;6.80;;;25.00;96.70;;;;;;4919499;29;20142;-78
2021/09/16 09:55:14;;;;;;;8.05;6.15;;;25.00;96.70;;;;;;4926450;29;20479;-77
2021/09/16 09:57:42;;;;;;;11.00;6.85;;;25.00;96.70;;;;;;4921572;29;20322;-76
2021/09/16 10:00:12;;;;;;;10.82;7.20;;;24.90;96.70;;;;;;4893786;29;20063;-77
2021/09/16 10:02:49;;;;;;;12.38;8.02;;;24.90;96.70;;;;;;4914098;29;20063;-77
2021/09/16 10:05:21;;;;;;;11.38;7.28;;;24.80;96.70;;;;;;4928177;29;20529;-77
2021/09/16 10:07:52;;;;;;;8.85;7.50;;;24.90;96.70;;;;;;4917241;29;20062;-76
2021/09/16 10:10:21;;;;;;;9.55;6.78;;;24.90;96.70;;;;;;4926896;29;20051;-76
2021/09/16 10:12:52;;;;;;;8.70;7.13;;;24.90;96.70;;;;;;4918458;29;20142;-76
2021/09/16 10:15:22;;;;;;;8.05;5.78;;;24.90;96.70;;;;;;4923291;29;20168;-76
2021/09/16 10:17:53;;;;;;;7.85;5.97;;;24.90;96.70;;;;;;4902848;29;20147;-75
2021/09/16 10:20:24;;;;;;;7.80;5.97;;;24.80;96.70;;;;;;4910328;29;20040;-75
2021/09/16 10:23:00;;;;;;;11.52;5.78;;;24.80;96.70;;;;;;4921133;29;20102;-75
2021/09/16 10:25:29;;;;;;;8.18;6.15;;;24.90;96.70;;;;;;4925799;29;20040;-75
2021/09/16 10:27:58;;;;;;;8.30;6.38;;;24.90;96.70;;;;;;4919771;29;20044;-75
2021/09/16 10:30:35;;;;;;;9.45;6.05;;;25.00;96.70;;;;;;4920564;29;20055;-74
2021/09/16 10:33:09;;;;;;;9.27;6.32;;;25.00;96.70;;;;;;4914227;29;20085;-74
2021/09/16 10:35:40;;;;;;;8.18;6.13;;;25.20;96.70;;;;;;4921387;29;20052;-75
2021/09/16 10:38:30;;;;;;;10.65;5.90;;;25.50;96.70;;;;;;4923096;29;20498;-74
2021/09/16 10:41:16;;;;;;;7.80;5.65;;;25.60;96.70;;;;;;4917472;29;20384;-75
2021/09/16 10:43:46;;;;;;;10.93;6.10;;;25.60;96.70;;;;;;4890200;29;20048;-74
2021/09/16 10:46:35;;;;;;;7.22;5.57;;;25.50;96.70;;;;;;4917061;29;20409;-75
2021/09/16 10:49:28;;;;;;;7.28;5.40;;;25.40;96.70;;;;;;4925927;29;20474;-74
2021/09/16 10:51:58;;;;;;;6.47;5.88;;;25.40;96.70;;;;;;4916904;29;20056;-74
2021/09/16 10:54:39;;;;;;;7.53;5.55;;;25.40;96.70;;;;;;4911550;29;20048;-75
2021/09/16 10:57:10;;;;;;;8.23;5.82;;;25.40;96.70;;;;;;4917682;29;20143;-75
2021/09/16 11:00:07;;;;;;;9.70;6.20;;;25.50;96.70;;;;;;4912299;29;20079;-75
2021/09/16 11:03:08;;;;;;;;;;;25.60;96.70;;;;;;4925953;29;20090;-74
2021/09/16 11:05:55;;;;;;;11.05;6.25;;;25.70;96.70;;;;;;4891085;29;20017;-74
2021/09/16 11:08:59;;;;;;;9.80;6.50;;;25.80;96.70;;;;;;4909153;29;20044;-74
2021/09/16 11:12:03;;;;;;;7.68;5.97;;;26.00;96.70;;;;;;4912763;29;20048;-75
2021/09/16 11:14:35;;;;;;;7.47;5.60;;;26.20;96.70;;;;;;4914358;29;20056;-74
2021/09/16 11:17:05;;;;;;;9.23;6.75;;;26.30;96.70;;;;;;4911942;29;20575;-75
2021/09/16 11:19:45;;;;;;;11.07;6.50;;;26.40;96.70;;;;;;4902269;29;20526;-75
2021/09/16 11:22:20;;;;;;;9.32;6.40;;;26.30;96.70;;;;;;4891132;29;20052;-74
2021/09/16 11:24:48;;;;;;;8.65;6.30;;;26.40;96.70;;;;;;4917942;29;20449;-75
2021/09/16 11:27:25;;;;;;;8.02;7.00;;;26.40;96.70;;;;;;4927367;29;20048;-75
2021/09/16 11:29:56;;;;;;;7.32;6.20;;;26.50;96.70;;;;;;4905769;29;20119;-74
2021/09/16 11:32:30;;;;;;;8.52;6.40;;;26.60;96.70;;;;;;4911553;29;20452;-75
2021/09/16 11:35:00;;;;;;;6.50;5.80;;;26.70;96.70;;;;;;4915392;29;20578;-75
2021/09/16 11:37:32;;;;;;;8.98;6.40;;;26.90;96.70;;;;;;4912446;29;20044;-75
2021/09/16 11:40:05;;;;;;;7.55;6.15;;;27.30;96.70;;;;;;4918933;29;20124;-75
2021/09/16 11:42:35;;;;;;;8.48;6.30;;;27.50;96.70;;;;;;4926947;29;20054;-75
2021/09/16 11:45:14;;;;;;;7.57;5.72;;;27.60;96.70;;;;;;4904085;29;20056;-75
2021/09/16 11:47:45;;;;;;;9.23;6.20;;;27.60;96.70;;;;;;4916155;29;20043;-77
2021/09/16 11:50:29;;;;;;;7.00;5.97;;;27.50;96.70;;;;;;4925704;29;20073;-77
2021/09/16 11:53:00;;;;;;;7.60;6.38;;;27.40;96.70;;;;;;4905378;29;20054;-77
2021/09/16 11:55:30;;;;;;;9.85;5.93;;;27.50;96.70;;;;;;4913455;29;20051;-77
2021/09/16 11:58:11;;;;;;;7.90;6.03;;;27.50;96.70;;;;;;4923561;29;20108;-77
2021/09/16 12:00:43;;;;;;;8.07;5.93;;;27.40;96.70;;;;;;4930648;29;20084;-77
2021/09/16 12:03:13;;;;;;;10.13;6.05;;;27.40;96.70;;;;;;4929601;29;20059;-77
2021/09/16 12:05:45;;;;;;;6.88;5.85;;;27.30;96.70;;;;;;4930661;29;20417;-77
2021/09/16 12:08:27;;;;;;;10.32;5.80;;;27.10;96.70;;;;;;4920140;29;20043;-78
2021/09/16 12:10:58;;;;;;;9.45;6.20;;;27.10;96.70;;;;;;4926998;29;20048;-78
2021/09/16 12:13:28;;;;;;;9.02;6.55;;;26.90;96.70;;;;;;4923585;29;20543;-78
2021/09/16 12:16:07;;;;;;;7.57;6.03;;;26.80;96.70;;;;;;4924202;29;20063;-77
2021/09/16 12:18:37;;;;;;;9.55;6.07;;;26.70;96.70;;;;;;4903977;29;20495;-78
2021/09/16 12:21:08;;;;;;;8.02;6.10;;;26.60;96.70;;;;;;4915874;29;20062;-80
2021/09/16 12:23:37;;;;;;;8.77;6.43;;;26.50;96.70;;;;;;4907458;29;20114;-76
2021/09/16 12:26:17;;;;;;;8.50;6.75;;;26.50;96.70;;;;;;4922930;29;20055;-77
2021/09/16 12:28:55;;;;;;;10.90;6.40;;;26.50;96.70;;;;;;4915918;29;20451;-77
2021/09/16 12:31:27;;;;;;;14.52;8.23;;;26.60;96.70;;;;;;4899567;29;20131;-79
2021/09/16 12:33:58;;;;;;;18.75;11.68;;;26.70;96.70;;;;;;4928553;29;20518;-79
2021/09/16 12:36:27;;;;;;;21.08;12.68;;;26.70;96.70;;;;;;4919234;29;20078;-76
2021/09/16 12:39:02;;;;;;;12.95;10.52;;;26.80;96.70;;;;;;4930452;29;20047;-78
2021/09/16 12:41:33;;;;;;;16.88;11.05;;;26.80;96.70;;;;;;4915373;29;20057;-77
2021/09/16 12:44:07;;;;;;;12.18;9.95;;;26.80;96.70;;;;;;4902464;29;20452;-77
2021/09/16 12:46:42;;;;;;;14.90;9.73;;;26.90;96.70;;;;;;4919487;29;20044;-78
2021/09/16 12:49:26;;;;;;;11.80;6.82;;;26.90;96.70;;;;;;4910148;29;20076;-77
2021/09/16 12:51:59;;;;;;;16.90;7.10;;;27.00;96.70;;;;;;4919319;29;20134;-77
2021/09/16 12:54:29;;;;;;;9.55;6.30;;;27.10;96.70;;;;;;4925769;29;20052;-77
2021/09/16 12:56:59;;;;;;;10.13;6.05;;;27.30;96.70;;;;;;4922461;29;20050;-77
2021/09/16 12:59:27;;;;;;;12.65;8.57;;;27.50;96.70;;;;;;4927114;29;20051;-78
2021/09/16 13:02:13;;;;;;;10.90;9.02;;;27.50;96.70;;;;;;4901722;29;20136;-76
2021/09/16 13:04:57;;;;;;;8.13;5.05;;;27.60;96.70;;;;;;4914116;29;20052;-76
2021/09/16 13:07:27;;;;;;;7.13;4.93;;;27.90;96.70;;;;;;4902402;29;20059;-75
2021/09/16 13:10:13;;;;;;;8.85;4.93;;;28.30;96.70;;;;;;4908522;29;20052;-78
2021/09/16 13:12:44;;;;;;;8.25;5.00;;;28.80;96.70;;;;;;4897159;29;20062;-74
2021/09/16 13:15:13;;;;;;;8.43;4.38;;;29.20;96.70;;;;;;4911296;29;20056;-77
2021/09/16 13:17:44;;;;;;;7.78;3.90;;;29.20;96.70;;;;;;4904282;29;20052;-75
2021/09/16 13:20:16;;;;;;;8.05;4.57;;;29.20;96.70;;;;;;4902756;29;20490;-76
2021/09/16 13:22:44;;;;;;;5.15;3.80;;;29.30;96.70;;;;;;4927445;29;20051;-76
2021/09/16 13:25:13;;;;;;;9.20;4.35;;;29.40;96.70;;;;;;4915514;29;20055;-74
2021/09/16 13:27:41;;;;;;;6.82;3.53;;;29.60;96.70;;;;;;4917118;29;20044;-77
2021/09/16 13:30:10;;;;;;;4.60;4.00;;;29.40;96.70;;;;;;4916849;29;20047;-75
2021/09/16 13:32:38;;;;;;;6.68;4.20;;;29.40;96.70;;;;;;4914141;29;20502;-75